Half Moon Bay, CA (94019)

11:47 AM PDT on September 18, 2014 (GMT -0700)
Canada Cove | Change Station
CLOSE
Current Station
Personal Weather Station
Location: Half Moon Bay, CA
Elevation: 95 ft
Nearby Weather Stations

Elev 95 ft 37.43 °N, 122.43 °W | Updated 9 seconds ago

Overcast
Overcast
68.1 °F
Feels Like 68.1 °F
N
5.9
Wind Variable Wind from South
Gusts 12.0 mph

Today
High -- | Low -- °F
--% Chance of Precip.
Yesterday
High -- | Low -- °F
Precip. -- in
6:54 AM 7:12 PM
Waning Crescent, 25% visible
Pressure 29.90 in
Visibility 2.5 miles
Clouds Mostly Cloudy 500 ft
Overcast 4200 ft
Dew Point 65 °F
Humidity 89%
Rainfall 0.02 in
Snow Depth 0 in , 0 in , 0 in
UV 2 out of 12
Pollen 5.10 out of 12
Air Quality Not available.
Flu Activity Not available.
METAR KHAF 181835Z AUTO 18007KT 2 1/2SM BR BKN005 OVC042 19/18 A2990 RMK AO2

More Conditions Fewer Conditions

Pressure 29.90 in
Visibility 2.5 miles
Clouds Mostly Cloudy 500 ft
Overcast 4200 ft
Dew Point 65 °F
Humidity 89%
Rainfall 0.02 in
Snow Depth 0 in , 0 in , 0 in
UV 2 out of 12
Pollen 5.10 out of 12
Air Quality Not available.
Flu Activity Not available.
METAR KHAF 181835Z AUTO 18007KT 2 1/2SM BR BKN005 OVC042 19/18 A2990 RMK AO2

More Conditions Fewer Conditions

10-Day Weather Forecast

Almanac

Astronomy

Sep. 18, 2014 Rise Set
Actual Time 6:54 AM PDT 7:12 PM PDT
Civil Twilight 6:28 AM PDT 7:38 PM PDT
Nautical Twilight 5:57 AM PDT 8:09 PM PDT
Astronomical Twilight 5:26 AM PDT 8:40 PM PDT
Moon 1:55 AM PDT 4:03 PM PDT
Length of Visible Light 13h 10m
Length of Day
12h 18m
Tomorrow will be 2m 23s shorter.
Waning Crescent, 25% of the Moon is Illuminated
Today
Waning Crescent
Sep 24
New
Oct 1
First Quarter
Oct 8
Full
Oct 15
Last Quarter

Today's Extremes

State Highs State Lows

Community

WunderPhotos

Upload Photos

1,754,417 photos uploaded!

Nearby

Snow Depth

Station Depth Elevation
Spratt Creek 0 in 6200 ft
Summit Meadow 0 in 9122 ft
Leavitt Meadows 0 in 7200 ft
Echo Peak 0 in 7800 ft
CSS Lab 5 in 6900 ft

Earthquake Activity

City Distance Mag. Time & Date
The Geysers, California 92 miles 2.5 11:29 PM PDT
2014-09-17
Cobb, California 94 miles 2.7 1:23 PM PDT
2014-09-16
Minimum magnitude displayed is 2.5.

Coastal Water Temperatures

Place Temperature
Point Reyes, CA 64.0 °F
San Francisco, CA 64.9 °F
Richmond, CA 68.0 °F

Nearby Weather Stations